Terminal Aerodrome Forecast
Issued by NWS Grand Junction, CO

Home | Current Version | Previous Version | Text Only | Print | Product List | Glossary On
Versions: 1 2 3 4 5 6 7 8 9 10 11 12 13 14 15 16 17 18 19 20 21 22 23 24 25 26 27 28 29 30 31 32 33 34 35 36
000
FTUS45 KGJT 021125
TAFGJT
TAF
KGJT 021125Z 0212/0312 07007KT P6SM VCSH SCT025 BKN070
      WS020/24030KT
     FM021300 12016KT 5SM -RA BR BKN025 OVC050 WS020/24030KT
     FM021700 23009G15KT P6SM -RA SCT025 BKN050
     FM022000 24012G22KT 5SM -RA BR SCT015 OVC030
      TEMPO 0220/0222 3SM -RA BKN015
     FM022200 28020G35KT 2SM -SHRA BKN015 OVC030
     FM030100 30018G23KT 4SM -SHRA BKN015 OVC030
     FM030600 31012KT 4SM -RA BR BKN012=

USA.gov is the U.S. government's official web portal to all federal, state and local government web resources and services.